Glade Park, CO

12:31 AM MST on January 21, 2017 (GMT -0700)
| | Change Station
Active Advisory: Winter Storm Warning

Elev -9999 ft 0.00 °N, 0.00 °E | Updated 0 second ago

Overcast
Overcast
°F
Feels Like °F
N
Wind Variable Wind from North
Gusts mph

Today
High -- | Low -- °F
--% Chance of Precip.
Yesterday
High -- | Low -- °F
Precip. -- in
Pressure 29.45 in
Visibility 10.0 miles
Clouds Mostly Cloudy 6000 ft
Dew Point Not available.
Humidity Not available.
Rainfall --
Snow Depth Not available.
7:28 AM 5:23 PM
Last Quarter, 37% visible
METAR KAJZ 210715Z AUTO 05012KT 10SM BKN060 02/M02 A2945 RMK AO2 T00241021
Pressure 29.45 in
Visibility 10.0 miles
Clouds Mostly Cloudy 6000 ft
Dew Point Not available.
Humidity Not available.
Rainfall --
Snow Depth Not available.
7:28 AM 5:23 PM
Last Quarter, 37% visible
METAR KAJZ 210715Z AUTO 05012KT 10SM BKN060 02/M02 A2945 RMK AO2 T00241021

Get Your Daily Forecast Email!

Thanks for signing up!

Be on the lookout for a verification email in your inbox.

You'll start receiving the daily forecast at 8 AM.

×

10-Day Weather Forecast

Almanac

Astronomy

Jan. 21, 2017 Rise Set
Actual Time
Civil Twilight
Nautical Twilight
Astronomical Twilight
Moon
Length of Visible Light
Length of Day
Tomorrow will be .
, % of the Moon is Illuminated

Today's Extremes

State Highs State Lows

Community

WunderPhotos

Upload Photos

1,962,540 photos uploaded!

WunderBlog® & News

Nearby

Air Quality

  Air Quality AQ Index Pollutant
Not available.

Snow Depth

Station Depth Elevation

Earthquake Activity

City Distance Mag. Time & Date
Minimum magnitude displayed is 2.5.

Coastal Water Temperatures

Place Temperature

Stations

Nearby Weather Stations

Station Location Temp. Windchill Dew Point Humidity Wind Precip. Elev Updated Type
                   

Watches & Warnings

Winter Storm Warning
Issued: 11:33 PM MST Jan. 20, 2017 – National Weather Service

... Winter Storm Warning remains in effect until 8 PM MST
Saturday...

* locations include the cities of... Ridgway... Glade Park...
Telluride... Ouray... Lake city... Silverton... Rico... Hesperus.

* Timing... occasional snow showers... heavy at times... will
expand in coverage overnight and continue through Saturday
afternoon.

* Snow accumulation... 12 to 20 inches storm total snowfall with
locally higher amounts on southwest facing slopes.

* Winds... southwest 10 to 20 mph with gusts up to 35 mph.

* Impacts... mountain roadways will become snow packed overnight
with winter driving conditions continuing through the weekend.
Visibilities will be reduced to under a half mile at times.

Precautionary/preparedness actions...

A Winter Storm Warning means significant amounts of snow are
expected or occurring. Strong winds and blowing snow are also
possible. This will make travel very hazardous or impossible.